createdAt,value
2019-05-29T00:00:15.429Z,2.80
2019-05-29T00:01:19.861Z,2.70
2019-05-29T00:02:15.590Z,2.40
2019-05-29T00:06:15.545Z,2.50
2019-05-29T00:09:15.296Z,2.90
2019-05-29T00:12:19.664Z,2.70
2019-05-29T00:13:15.929Z,2.60
2019-05-29T00:14:25.797Z,2.80
2019-05-29T00:16:16.629Z,2.80
2019-05-29T00:18:15.576Z,3.10
2019-05-29T00:19:16.627Z,2.80
2019-05-29T00:21:15.661Z,2.30
2019-05-29T00:24:15.955Z,2.60
2019-05-29T00:25:16.690Z,3.20
2019-05-29T00:31:16.167Z,3.00
2019-05-29T00:32:17.193Z,2.80
2019-05-29T00:33:16.033Z,2.50
2019-05-29T00:34:23.540Z,2.70
2019-05-29T00:37:16.700Z,2.90
2019-05-29T00:38:16.788Z,2.90
2019-05-29T00:39:17.027Z,3.10
2019-05-29T00:42:17.457Z,3.10
2019-05-29T00:45:17.737Z,3.00
2019-05-29T00:51:17.237Z,2.60
2019-05-29T00:52:16.676Z,2.50
2019-05-29T00:53:16.613Z,2.60
2019-05-29T00:56:18.835Z,2.60
2019-05-29T00:57:17.090Z,2.70
2019-05-29T01:02:17.885Z,2.90
2019-05-29T01:03:19.964Z,2.70
2019-05-29T01:12:12.772Z,3.00
2019-05-29T01:13:13.042Z,3.10
2019-05-29T01:14:13.014Z,3.00
2019-05-29T01:22:02.152Z,3.00
2019-05-29T01:24:02.211Z,3.00
2019-05-29T01:25:02.058Z,2.90
2019-05-29T01:26:02.374Z,3.30
2019-05-29T01:27:05.813Z,3.10
2019-05-29T01:29:00.193Z,2.90
2019-05-29T01:29:59.943Z,2.90
2019-05-29T01:33:03.367Z,2.70
2019-05-29T01:34:59.868Z,2.40
2019-05-29T01:35:59.899Z,2.70
2019-05-29T01:36:59.928Z,2.60
2019-05-29T01:38:00.191Z,2.50
2019-05-29T01:39:00.217Z,2.70
2019-05-29T01:40:00.651Z,2.50
2019-05-29T01:44:00.480Z,2.80
2019-05-29T01:45:07.800Z,2.30
2019-05-29T01:49:02.214Z,2.80
2019-05-29T01:58:00.587Z,3.10
2019-05-29T02:13:01.647Z,3.40
2019-05-29T02:16:18.528Z,3.20
2019-05-29T02:17:01.230Z,2.80
2019-05-29T02:18:02.828Z,3.20
2019-05-29T02:28:54.713Z,2.30
2019-05-29T02:29:54.945Z,2.90
2019-05-29T02:30:54.797Z,3.00
2019-05-29T02:31:55.033Z,2.80
2019-05-29T02:36:55.435Z,2.50
2019-05-29T02:42:55.158Z,2.10
2019-05-29T02:43:55.396Z,2.20
2019-05-29T02:45:55.393Z,2.20
2019-05-29T02:48:56.671Z,2.10
2019-05-29T02:49:56.490Z,2.20
2019-05-29T02:52:55.464Z,2.60
2019-05-29T02:53:55.900Z,2.90
2019-05-29T02:54:55.933Z,2.50
2019-05-29T03:02:56.779Z,2.60
2019-05-29T03:03:56.606Z,3.00
2019-05-29T03:04:55.808Z,2.80
2019-05-29T03:05:55.858Z,3.20
2019-05-29T03:06:56.602Z,2.60
2019-05-29T03:08:56.435Z,3.10
2019-05-29T03:11:59.865Z,2.90
2019-05-29T03:12:56.271Z,3.40
2019-05-29T03:13:56.608Z,2.70
2019-05-29T03:14:57.456Z,3.80
2019-05-29T03:16:09.487Z,4.50
2019-05-29T03:18:57.382Z,2.70
2019-05-29T03:24:56.435Z,3.30
2019-05-29T03:25:56.750Z,2.90
2019-05-29T03:26:58.623Z,3.90
2019-05-29T03:27:58.832Z,3.30
2019-05-29T03:39:02.093Z,2.70
2019-05-29T03:40:01.917Z,2.90
2019-05-29T03:41:02.563Z,2.90
2019-05-29T03:43:02.202Z,3.50
2019-05-29T03:45:03.680Z,4.10
2019-05-29T03:46:03.506Z,3.60
2019-05-29T03:54:02.539Z,2.70
2019-05-29T03:55:02.974Z,3.00
2019-05-29T03:57:03.235Z,2.70
2019-05-29T03:58:02.455Z,3.00
2019-05-29T04:04:03.655Z,3.10
2019-05-29T04:05:04.289Z,2.80
2019-05-29T04:23:04.117Z,2.50
2019-05-29T04:52:59.676Z,3.50
2019-05-29T04:53:59.706Z,3.20
2019-05-29T04:54:59.759Z,3.00
2019-05-29T04:56:59.795Z,3.10
2019-05-29T04:58:00.563Z,2.90
2019-05-29T04:59:00.083Z,2.80
2019-05-29T05:01:00.654Z,3.40
2019-05-29T05:03:00.406Z,2.80
2019-05-29T05:04:00.442Z,2.80
2019-05-29T05:05:02.368Z,2.50
2019-05-29T05:06:00.500Z,2.60
2019-05-29T05:10:00.421Z,2.90
2019-05-29T05:11:01.467Z,3.00
2019-05-29T05:12:01.368Z,2.20
2019-05-29T05:15:00.377Z,2.70
2019-05-29T05:17:00.435Z,3.20
2019-05-29T05:18:00.464Z,3.60
2019-05-29T05:19:00.497Z,3.60
2019-05-29T05:20:01.423Z,3.20
2019-05-29T05:21:01.272Z,3.20
2019-05-29T05:22:00.792Z,3.30
2019-05-29T05:23:00.820Z,2.90
2019-05-29T05:24:00.655Z,2.80
2019-05-29T05:28:01.284Z,3.20
2019-05-29T05:30:01.449Z,3.30
2019-05-29T05:31:01.477Z,3.20
2019-05-29T05:32:01.308Z,3.30
2019-05-29T05:33:00.930Z,3.60
2019-05-29T05:40:01.969Z,4.20
2019-05-29T05:43:01.233Z,5.60
2019-05-29T05:44:01.271Z,5.60
2019-05-29T05:45:01.510Z,6.60
2019-05-29T05:46:01.310Z,7.20
2019-05-29T05:47:01.344Z,7.80
2019-05-29T05:48:01.395Z,8.80
2019-05-29T05:49:01.631Z,10.90
2019-05-29T05:50:01.880Z,10.60
2019-05-29T05:52:01.526Z,10.80
2019-05-29T05:54:01.579Z,12.70
2019-05-29T05:55:01.615Z,11.60
2019-05-29T05:56:01.645Z,12.80
2019-05-29T05:57:01.652Z,12.00
2019-05-29T05:59:01.738Z,13.80
2019-05-29T06:00:01.974Z,13.00
2019-05-29T06:02:01.871Z,14.00
2019-05-29T06:03:01.842Z,13.60
2019-05-29T06:04:01.898Z,13.30
2019-05-29T06:05:02.129Z,12.60
2019-05-29T06:06:02.264Z,12.90
2019-05-29T06:07:01.990Z,14.00
2019-05-29T06:08:02.021Z,14.80
2019-05-29T06:10:02.288Z,13.90
2019-05-29T06:12:02.148Z,13.50
2019-05-29T06:13:02.155Z,13.60
2019-05-29T06:14:02.209Z,14.00
2019-05-29T06:15:02.445Z,13.70
2019-05-29T06:16:02.274Z,14.30
2019-05-29T06:17:02.306Z,14.10
2019-05-29T06:18:19.902Z,14.20
2019-05-29T06:19:02.569Z,14.10
2019-05-29T06:20:02.377Z,13.30
2019-05-29T06:21:02.461Z,13.40
2019-05-29T06:22:02.440Z,13.80
2019-05-29T06:23:05.093Z,13.80
2019-05-29T06:24:02.502Z,13.30
2019-05-29T06:25:02.536Z,13.20
2019-05-29T06:26:02.618Z,13.30
2019-05-29T06:27:02.612Z,13.20
2019-05-29T06:28:02.633Z,13.60
2019-05-29T06:29:02.662Z,14.30
2019-05-29T06:30:03.549Z,13.30
2019-05-29T06:31:02.735Z,13.20
2019-05-29T06:32:02.766Z,13.40
2019-05-29T06:33:02.817Z,13.00
2019-05-29T06:34:03.833Z,12.10
2019-05-29T06:35:02.904Z,12.90
2019-05-29T06:36:02.888Z,13.80
2019-05-29T06:37:02.919Z,13.70
2019-05-29T06:38:02.951Z,13.90
2019-05-29T06:39:02.986Z,12.90
2019-05-29T06:40:03.016Z,13.60
2019-05-29T06:41:03.051Z,13.00
2019-05-29T06:42:03.078Z,12.50
2019-05-29T06:43:03.113Z,13.10
2019-05-29T06:44:03.145Z,13.70
2019-05-29T06:45:03.603Z,11.90
2019-05-29T06:46:03.210Z,13.30
2019-05-29T06:47:03.245Z,14.10
2019-05-29T06:48:03.282Z,13.50
2019-05-29T06:49:03.359Z,13.60
2019-05-29T06:50:03.342Z,14.00
2019-05-29T06:51:03.375Z,14.20
2019-05-29T06:52:03.407Z,13.90
2019-05-29T06:53:03.441Z,13.10
2019-05-29T06:54:03.489Z,13.00
2019-05-29T06:55:03.507Z,14.20
2019-05-29T06:56:03.910Z,13.30
2019-05-29T06:57:03.576Z,13.20
2019-05-29T06:58:03.633Z,13.20
2019-05-29T06:59:03.637Z,13.40
2019-05-29T07:00:03.683Z,13.30
2019-05-29T07:01:03.703Z,13.30
2019-05-29T07:02:03.738Z,13.60
2019-05-29T07:03:03.771Z,13.20
2019-05-29T07:04:11.719Z,13.40
2019-05-29T07:05:03.835Z,13.80
2019-05-29T07:06:03.885Z,13.90
2019-05-29T07:07:03.901Z,13.20
2019-05-29T07:08:18.687Z,13.70
2019-05-29T07:09:03.968Z,13.40
2019-05-29T07:10:04.002Z,15.10
2019-05-29T07:11:04.035Z,13.90
2019-05-29T07:12:04.091Z,14.60
2019-05-29T07:13:04.100Z,14.70
2019-05-29T07:14:04.137Z,14.40
2019-05-29T07:15:04.166Z,14.40
2019-05-29T07:16:04.198Z,15.00
2019-05-29T07:17:04.232Z,13.70
2019-05-29T07:18:04.264Z,14.40
2019-05-29T07:20:04.465Z,15.90
2019-05-29T07:21:04.362Z,15.20
2019-05-29T07:22:04.395Z,14.00
2019-05-29T07:23:04.432Z,15.50
2019-05-29T07:24:04.461Z,14.80
2019-05-29T07:25:04.493Z,15.10
2019-05-29T07:26:04.525Z,16.40
2019-05-29T07:27:04.565Z,15.30
2019-05-29T07:28:04.590Z,16.10
2019-05-29T07:29:08.290Z,15.30
2019-05-29T07:30:04.654Z,16.10
2019-05-29T07:31:04.689Z,16.20
2019-05-29T07:32:04.718Z,15.20
2019-05-29T07:33:04.752Z,15.80
2019-05-29T07:34:04.783Z,15.80
2019-05-29T07:35:04.844Z,16.70
2019-05-29T07:36:04.847Z,15.60
2019-05-29T07:37:04.881Z,15.90
2019-05-29T07:38:04.924Z,16.30
2019-05-29T07:39:04.946Z,15.80
2019-05-29T07:40:04.978Z,16.70
2019-05-29T07:41:05.012Z,17.00
2019-05-29T07:42:05.043Z,15.80
2019-05-29T07:43:05.074Z,15.90
2019-05-29T07:44:05.104Z,16.50
2019-05-29T07:45:05.138Z,15.30
2019-05-29T07:46:05.171Z,15.60
2019-05-29T07:47:05.203Z,15.30
2019-05-29T07:48:05.234Z,16.30
2019-05-29T07:49:05.267Z,14.90
2019-05-29T07:50:05.300Z,14.20
2019-05-29T07:51:07.319Z,14.60
2019-05-29T07:52:05.372Z,16.10
2019-05-29T07:53:05.398Z,15.20
2019-05-29T07:54:05.482Z,15.30
2019-05-29T07:55:05.465Z,15.80
2019-05-29T07:56:21.388Z,14.00
2019-05-29T07:57:05.536Z,15.60
2019-05-29T07:58:05.564Z,14.90
2019-05-29T07:59:05.597Z,14.70
2019-05-29T08:00:05.959Z,15.30
2019-05-29T08:01:13.247Z,15.70
2019-05-29T08:02:05.724Z,16.10
2019-05-29T08:03:05.755Z,15.20
2019-05-29T08:04:05.765Z,15.20
2019-05-29T08:05:05.821Z,15.80
2019-05-29T08:06:05.834Z,15.50
2019-05-29T08:07:05.867Z,16.00
2019-05-29T08:08:05.930Z,15.00
2019-05-29T08:09:06.465Z,15.10
2019-05-29T08:10:05.972Z,14.50
2019-05-29T08:11:06.005Z,14.90
2019-05-29T08:12:06.039Z,14.40
2019-05-29T08:13:06.110Z,14.60
2019-05-29T08:14:06.106Z,14.40
2019-05-29T08:15:06.141Z,14.50
2019-05-29T08:16:06.175Z,15.50
2019-05-29T08:17:06.210Z,13.30
2019-05-29T08:18:06.266Z,14.00
2019-05-29T08:19:08.079Z,13.80
2019-05-29T08:20:07.657Z,12.90
2019-05-29T08:21:06.349Z,13.50
2019-05-29T08:22:06.385Z,14.20
2019-05-29T08:25:06.524Z,13.40
2019-05-29T08:26:07.464Z,13.40
2019-05-29T08:27:06.787Z,14.20
2019-05-29T08:28:07.511Z,13.30
2019-05-29T08:29:06.661Z,13.50
2019-05-29T08:32:07.166Z,13.60
2019-05-29T08:33:07.319Z,12.90
2019-05-29T08:35:06.878Z,12.60
2019-05-29T08:41:08.199Z,13.70
2019-05-29T08:52:11.805Z,14.50
2019-05-29T08:59:10.718Z,15.00
2019-05-29T09:00:07.726Z,15.00
2019-05-29T09:01:07.760Z,14.40
2019-05-29T09:04:08.101Z,15.30
2019-05-29T09:05:07.908Z,15.00
2019-05-29T09:06:09.612Z,14.20
2019-05-29T09:07:07.998Z,15.00
2019-05-29T09:08:08.032Z,14.00
2019-05-29T09:09:08.065Z,15.50
2019-05-29T09:10:08.106Z,15.10
2019-05-29T09:11:08.118Z,14.30
2019-05-29T09:12:08.156Z,13.60
2019-05-29T09:13:08.189Z,13.30
2019-05-29T09:14:08.225Z,13.80
2019-05-29T09:15:09.089Z,14.70
2019-05-29T09:16:08.300Z,14.20
2019-05-29T09:17:08.597Z,14.00
2019-05-29T09:18:08.373Z,14.40
2019-05-29T09:19:08.409Z,14.40
2019-05-29T09:20:25.510Z,13.80
2019-05-29T09:21:08.485Z,14.50
2019-05-29T09:22:08.519Z,14.50
2019-05-29T09:23:08.556Z,14.40
2019-05-29T09:24:08.591Z,15.00
2019-05-29T09:25:08.664Z,15.40
2019-05-29T09:26:15.733Z,15.60
2019-05-29T09:27:08.703Z,15.10
2019-05-29T09:28:08.738Z,14.60
2019-05-29T09:29:08.776Z,15.20
2019-05-29T09:30:08.812Z,16.10
2019-05-29T09:31:08.850Z,15.00
2019-05-29T09:32:08.885Z,15.30
2019-05-29T09:33:08.923Z,16.10
2019-05-29T09:34:09.020Z,16.30
2019-05-29T09:35:08.997Z,16.80
2019-05-29T09:36:09.035Z,15.90
2019-05-29T09:37:09.072Z,15.90
2019-05-29T09:38:09.110Z,16.20
2019-05-29T09:39:09.149Z,15.80
2019-05-29T09:40:09.182Z,16.20
2019-05-29T09:41:09.220Z,14.90
2019-05-29T09:42:09.261Z,15.70
2019-05-29T09:43:09.295Z,15.10
2019-05-29T09:44:09.369Z,15.00
2019-05-29T09:45:09.572Z,15.40
2019-05-29T09:46:09.408Z,13.70
2019-05-29T09:47:09.647Z,14.70
2019-05-29T09:48:09.531Z,16.30
2019-05-29T09:49:09.519Z,15.00
2019-05-29T09:50:09.555Z,15.50
2019-05-29T09:51:20.537Z,16.30
2019-05-29T09:52:09.630Z,15.00
2019-05-29T09:53:09.667Z,15.50
2019-05-29T09:54:09.745Z,16.60
2019-05-29T09:55:09.740Z,16.40
2019-05-29T09:56:09.779Z,17.50
2019-05-29T09:57:09.814Z,17.50
2019-05-29T09:58:09.851Z,16.60
2019-05-29T09:59:09.888Z,17.20
2019-05-29T10:00:09.928Z,17.00
2019-05-29T10:01:22.712Z,16.60
2019-05-29T10:02:10.009Z,16.40
2019-05-29T10:03:10.036Z,16.80
2019-05-29T10:04:10.074Z,15.50
2019-05-29T10:05:10.111Z,16.20
2019-05-29T10:06:10.150Z,16.00
2019-05-29T10:07:10.186Z,17.00
2019-05-29T10:08:10.222Z,16.40
2019-05-29T10:09:10.262Z,14.30
2019-05-29T10:10:10.298Z,16.60
2019-05-29T10:11:11.133Z,15.10
2019-05-29T10:12:10.374Z,14.80
2019-05-29T10:13:10.440Z,15.70
2019-05-29T10:14:10.451Z,16.30
2019-05-29T10:15:10.488Z,14.30
2019-05-29T10:16:10.529Z,16.00
2019-05-29T10:17:12.410Z,15.10
2019-05-29T10:18:30.455Z,14.70
2019-05-29T10:19:10.643Z,15.50
2019-05-29T10:20:10.681Z,16.20
2019-05-29T10:21:10.718Z,14.40
2019-05-29T10:22:10.756Z,15.40
2019-05-29T10:23:10.794Z,14.10
2019-05-29T10:24:10.830Z,13.80
2019-05-29T10:25:10.869Z,13.50
2019-05-29T10:26:10.907Z,13.60
2019-05-29T10:27:10.944Z,15.00
2019-05-29T10:28:10.981Z,15.70
2019-05-29T10:29:11.082Z,16.90
2019-05-29T10:30:11.056Z,16.20
2019-05-29T10:31:11.093Z,15.60
2019-05-29T10:32:11.132Z,16.20
2019-05-29T10:33:11.168Z,15.10
2019-05-29T10:34:11.408Z,14.30
2019-05-29T10:35:11.243Z,15.10
2019-05-29T10:36:11.278Z,16.40
2019-05-29T10:37:11.320Z,15.70
2019-05-29T10:38:11.355Z,17.20
2019-05-29T10:39:12.907Z,16.70
2019-05-29T10:40:11.434Z,16.10
2019-05-29T10:41:11.466Z,17.30
2019-05-29T10:42:11.504Z,16.30
2019-05-29T10:43:11.542Z,16.30
2019-05-29T10:44:12.855Z,16.60
2019-05-29T10:45:11.617Z,16.00
2019-05-29T10:46:11.656Z,15.20
2019-05-29T10:47:11.691Z,14.20
2019-05-29T10:48:11.729Z,15.00
2019-05-29T10:49:11.784Z,16.60
2019-05-29T10:50:11.841Z,16.90
2019-05-29T10:51:11.842Z,15.70
2019-05-29T10:52:16.616Z,16.60
2019-05-29T10:53:11.915Z,16.00
2019-05-29T10:54:11.955Z,16.00
2019-05-29T10:55:11.991Z,14.80
2019-05-29T10:56:12.030Z,15.90
2019-05-29T10:57:12.070Z,16.70
2019-05-29T10:58:12.103Z,16.00
2019-05-29T10:59:12.141Z,16.70
2019-05-29T11:00:12.177Z,17.10
2019-05-29T11:01:12.215Z,15.80
2019-05-29T11:02:12.298Z,16.40
2019-05-29T11:03:12.291Z,18.70
2019-05-29T11:04:12.326Z,17.60
2019-05-29T11:05:12.364Z,17.30
2019-05-29T11:06:12.410Z,17.20
2019-05-29T11:07:12.439Z,16.50
2019-05-29T11:08:12.473Z,16.70
2019-05-29T11:09:12.510Z,17.40
2019-05-29T11:10:13.588Z,17.10
2019-05-29T11:11:12.585Z,18.40
2019-05-29T11:12:12.619Z,18.10
2019-05-29T11:13:12.654Z,17.40
2019-05-29T11:14:12.702Z,17.00
2019-05-29T11:15:21.360Z,17.20
2019-05-29T11:16:12.991Z,16.00
2019-05-29T11:17:12.801Z,16.80
2019-05-29T11:18:12.836Z,16.60
2019-05-29T11:19:12.874Z,16.70
2019-05-29T11:20:12.910Z,16.20
2019-05-29T11:21:12.945Z,16.70
2019-05-29T11:22:25.786Z,15.20
2019-05-29T11:23:13.019Z,15.50
2019-05-29T11:24:13.058Z,15.70
2019-05-29T11:25:22.628Z,15.40
2019-05-29T11:26:13.129Z,14.50
2019-05-29T11:27:13.165Z,14.80
2019-05-29T11:28:13.202Z,14.10
2019-05-29T11:29:13.241Z,14.00
2019-05-29T11:30:13.278Z,13.00
2019-05-29T11:31:13.317Z,13.80
2019-05-29T11:32:13.353Z,14.20
2019-05-29T11:33:13.388Z,13.90
2019-05-29T11:34:13.651Z,14.20
2019-05-29T11:35:13.491Z,13.10
2019-05-29T11:36:13.901Z,12.70
2019-05-29T11:37:13.771Z,14.00
2019-05-29T11:38:13.913Z,13.30
2019-05-29T11:39:13.947Z,13.00
2019-05-29T11:40:14.264Z,12.80
2019-05-29T11:41:25.265Z,12.30
2019-05-29T11:42:26.993Z,12.30
2019-05-29T11:44:13.844Z,12.80
2019-05-29T11:45:13.854Z,12.40
2019-05-29T11:46:16.922Z,11.40
2019-05-29T11:47:13.937Z,13.20
2019-05-29T11:48:15.189Z,12.30
2019-05-29T11:49:14.041Z,12.40
2019-05-29T11:51:14.098Z,11.90
2019-05-29T11:52:24.486Z,12.70
2019-05-29T11:53:14.200Z,13.60
2019-05-29T11:54:14.241Z,12.50
2019-05-29T11:55:14.493Z,12.90
2019-05-29T11:56:15.639Z,12.40
2019-05-29T11:57:14.365Z,14.00
2019-05-29T11:58:30.106Z,12.50
2019-05-29T11:59:14.421Z,13.50
2019-05-29T12:00:20.099Z,13.20
2019-05-29T12:01:14.505Z,12.70
2019-05-29T12:02:14.567Z,13.20
2019-05-29T12:03:14.610Z,12.60
2019-05-29T12:04:25.394Z,12.80
2019-05-29T12:05:14.689Z,12.80
2019-05-29T12:06:14.781Z,13.70
2019-05-29T12:07:14.750Z,13.70
2019-05-29T12:08:14.791Z,13.70
2019-05-29T12:09:29.019Z,13.10
2019-05-29T12:10:15.124Z,12.90
2019-05-29T12:11:14.922Z,13.60
2019-05-29T12:12:15.181Z,13.80
2019-05-29T12:13:15.225Z,13.80
2019-05-29T12:15:17.603Z,12.70
2019-05-29T12:16:15.114Z,12.50
2019-05-29T12:17:15.153Z,12.60
2019-05-29T12:18:23.401Z,12.20
2019-05-29T12:19:15.231Z,11.50
2019-05-29T12:20:28.396Z,11.20
2019-05-29T12:21:15.310Z,12.10
2019-05-29T12:22:15.380Z,11.70
2019-05-29T12:23:25.940Z,11.60
2019-05-29T12:24:15.654Z,10.90
2019-05-29T12:25:16.911Z,10.50
2019-05-29T12:26:22.211Z,10.90
2019-05-29T12:27:15.552Z,10.40
2019-05-29T12:28:15.585Z,9.70
2019-05-29T12:29:15.629Z,9.30
2019-05-29T12:30:15.664Z,9.60
2019-05-29T12:31:15.705Z,9.50
2019-05-29T12:32:15.761Z,9.70
2019-05-29T12:33:15.786Z,8.50
2019-05-29T12:34:19.060Z,8.60
2019-05-29T12:35:15.883Z,9.80
2019-05-29T12:36:15.897Z,9.40
2019-05-29T12:37:15.958Z,8.70
2019-05-29T12:38:15.983Z,10.10
2019-05-29T12:39:16.016Z,8.80
2019-05-29T12:40:16.055Z,8.90
2019-05-29T12:41:16.101Z,8.60
2019-05-29T12:42:16.136Z,8.50
2019-05-29T12:43:26.783Z,9.10
2019-05-29T12:44:16.212Z,8.90
2019-05-29T12:45:16.257Z,9.20
2019-05-29T12:46:16.293Z,9.70
2019-05-29T12:47:16.344Z,9.50
2019-05-29T12:48:16.992Z,10.00
2019-05-29T12:49:16.411Z,8.30
2019-05-29T12:50:16.478Z,8.50
2019-05-29T12:51:16.694Z,8.10
2019-05-29T12:52:16.553Z,9.20
2019-05-29T12:53:29.541Z,9.70
2019-05-29T12:55:16.650Z,8.40
2019-05-29T12:56:16.689Z,9.00
2019-05-29T12:57:16.752Z,8.30
2019-05-29T12:58:16.771Z,10.30
2019-05-29T12:59:16.835Z,10.00
2019-05-29T13:00:16.850Z,9.10
2019-05-29T13:01:16.917Z,9.10
2019-05-29T13:02:16.964Z,8.80
2019-05-29T13:03:16.972Z,7.90
2019-05-29T13:04:17.010Z,7.90
2019-05-29T13:05:20.406Z,7.20
2019-05-29T13:06:17.092Z,6.00
2019-05-29T13:07:17.135Z,5.80
2019-05-29T13:08:17.174Z,7.30
2019-05-29T13:09:17.215Z,7.10
2019-05-29T13:10:29.938Z,6.80
2019-05-29T13:11:17.299Z,7.00
2019-05-29T13:12:17.341Z,7.00
2019-05-29T13:13:17.381Z,8.00
2019-05-29T13:14:17.424Z,7.30
2019-05-29T13:15:17.467Z,6.90
2019-05-29T13:16:17.507Z,7.60
2019-05-29T13:17:17.551Z,7.20
2019-05-29T13:18:17.592Z,7.40
2019-05-29T13:19:17.638Z,7.80
2019-05-29T13:20:21.808Z,7.50
2019-05-29T13:21:17.948Z,7.70
2019-05-29T13:22:17.786Z,7.50
2019-05-29T13:23:17.823Z,7.80
2019-05-29T13:24:18.076Z,7.10
2019-05-29T13:25:17.890Z,7.00
2019-05-29T13:26:17.933Z,6.60
2019-05-29T13:27:17.977Z,6.70
2019-05-29T13:28:18.018Z,6.50
2019-05-29T13:30:18.340Z,8.40
2019-05-29T13:31:18.182Z,7.70
2019-05-29T13:32:18.191Z,7.30
2019-05-29T13:33:18.246Z,7.70
2019-05-29T13:34:19.112Z,6.70
2019-05-29T13:38:18.483Z,6.60
2019-05-29T13:39:18.500Z,6.20
2019-05-29T13:40:18.563Z,6.40
2019-05-29T13:41:18.584Z,6.70
2019-05-29T13:42:18.629Z,7.10
2019-05-29T13:43:18.673Z,6.60
2019-05-29T13:44:19.453Z,6.60
2019-05-29T13:45:18.823Z,8.00
2019-05-29T13:47:19.069Z,5.80
2019-05-29T13:48:18.885Z,5.80
2019-05-29T13:49:18.937Z,6.70
2019-05-29T13:50:18.993Z,5.90
2019-05-29T13:51:19.016Z,5.60
2019-05-29T13:52:19.057Z,6.60
2019-05-29T13:53:19.124Z,6.40
2019-05-29T13:54:19.143Z,6.80
2019-05-29T13:55:19.196Z,6.60
2019-05-29T13:56:19.246Z,6.60
2019-05-29T13:57:19.267Z,6.00
2019-05-29T13:58:19.512Z,5.80
2019-05-29T13:59:19.356Z,7.20
2019-05-29T14:00:33.090Z,7.60
2019-05-29T14:01:19.463Z,8.60
2019-05-29T14:02:19.510Z,8.60
2019-05-29T14:04:19.596Z,8.10
2019-05-29T14:05:19.613Z,7.50
2019-05-29T14:06:19.656Z,8.10
2019-05-29T14:07:19.702Z,9.20
2019-05-29T14:08:19.755Z,8.30
2019-05-29T14:09:19.808Z,8.10
2019-05-29T14:10:19.850Z,7.90
2019-05-29T14:11:19.900Z,7.90
2019-05-29T14:12:19.920Z,7.50
2019-05-29T14:13:19.990Z,7.90
2019-05-29T14:14:20.018Z,7.80
2019-05-29T14:18:20.192Z,5.40
2019-05-29T14:19:20.290Z,5.70
2019-05-29T14:20:20.285Z,6.10
2019-05-29T14:21:20.334Z,5.60
2019-05-29T14:22:20.380Z,6.00
2019-05-29T14:23:20.429Z,5.30
2019-05-29T14:24:29.164Z,4.90
2019-05-29T14:25:20.528Z,4.60
2019-05-29T14:28:20.662Z,3.50
2019-05-29T14:29:20.708Z,3.30
2019-05-29T14:30:20.758Z,3.70
2019-05-29T14:31:20.804Z,3.10
2019-05-29T14:32:20.951Z,2.90
2019-05-29T14:33:20.897Z,2.80
2019-05-29T14:34:20.945Z,2.40
2019-05-29T14:35:20.992Z,2.40
2019-05-29T14:36:21.037Z,2.20
2019-05-29T14:37:21.084Z,1.70
2019-05-29T14:38:21.131Z,1.80
2019-05-29T14:39:21.179Z,2.20
2019-05-29T14:40:21.248Z,2.10
2019-05-29T14:41:21.280Z,2.00
2019-05-29T14:42:21.322Z,1.80
2019-05-29T14:43:21.367Z,1.90
2019-05-29T14:44:21.417Z,1.80
2019-05-29T14:45:21.477Z,1.30
2019-05-29T14:46:21.511Z,1.50
2019-05-29T14:47:22.169Z,1.60
2019-05-29T14:48:21.611Z,1.80
2019-05-29T14:49:21.655Z,2.00
2019-05-29T14:50:21.710Z,2.10
2019-05-29T14:51:21.754Z,1.50
2019-05-29T14:52:21.809Z,1.50
2019-05-29T14:53:21.850Z,2.20
2019-05-29T14:54:21.901Z,2.10
2019-05-29T14:55:21.948Z,2.60
2019-05-29T14:56:22.014Z,2.00
2019-05-29T14:57:26.079Z,1.90
2019-05-29T14:58:22.095Z,1.90
2019-05-29T14:59:22.142Z,1.80
2019-05-29T15:00:25.523Z,1.90
2019-05-29T15:01:22.238Z,2.00
2019-05-29T15:02:24.174Z,2.10
2019-05-29T15:03:22.364Z,2.40
2019-05-29T15:04:22.385Z,2.50
2019-05-29T15:05:22.432Z,2.90
2019-05-29T15:06:22.480Z,3.90
2019-05-29T15:07:23.043Z,3.90
2019-05-29T15:08:22.575Z,3.90
2019-05-29T15:09:22.623Z,3.50
2019-05-29T15:10:27.434Z,3.10
2019-05-29T15:11:22.719Z,3.80
2019-05-29T15:12:22.765Z,4.50
2019-05-29T15:13:22.813Z,4.50
2019-05-29T15:14:22.861Z,3.90
2019-05-29T15:15:22.908Z,3.60
2019-05-29T15:16:22.961Z,2.90
2019-05-29T15:20:23.143Z,3.70
2019-05-29T15:21:23.192Z,4.40
2019-05-29T15:22:24.654Z,4.00
2019-05-29T15:25:24.498Z,3.60
2019-05-29T15:26:23.434Z,4.00
2019-05-29T15:28:23.524Z,4.90
2019-05-29T15:29:23.647Z,7.40
2019-05-29T15:30:24.073Z,10.10
2019-05-29T15:31:24.898Z,5.40
2019-05-29T15:32:23.918Z,8.40
2019-05-29T15:33:23.760Z,5.90
2019-05-29T15:34:23.833Z,12.60
2019-05-29T15:35:23.854Z,6.40
2019-05-29T15:36:23.900Z,6.60
2019-05-29T15:37:23.946Z,6.90
2019-05-29T15:38:23.992Z,7.00
2019-05-29T15:39:24.038Z,6.70
2019-05-29T15:40:24.083Z,6.70
2019-05-29T15:41:24.662Z,6.20
2019-05-29T15:42:24.173Z,6.00
2019-05-29T15:43:24.240Z,6.30
2019-05-29T15:46:24.785Z,6.00
2019-05-29T15:47:24.424Z,6.30
2019-05-29T15:49:24.487Z,6.30
2019-05-29T15:50:24.558Z,6.70
2019-05-29T15:51:24.611Z,6.00
2019-05-29T15:52:24.933Z,5.80
2019-05-29T15:53:25.301Z,5.90
2019-05-29T15:54:24.949Z,5.80
2019-05-29T15:55:33.942Z,5.60
2019-05-29T15:59:24.944Z,4.90
2019-05-29T16:00:24.987Z,4.60
2019-05-29T16:01:25.040Z,4.60
2019-05-29T16:02:25.079Z,4.50
2019-05-29T16:03:25.135Z,4.70
2019-05-29T16:04:25.173Z,5.80
2019-05-29T16:05:25.216Z,4.60
2019-05-29T16:06:25.268Z,4.90
2019-05-29T16:07:25.304Z,4.20
2019-05-29T16:08:25.351Z,5.20
2019-05-29T16:09:25.431Z,4.80
2019-05-29T16:10:25.440Z,5.30
2019-05-29T16:11:25.853Z,5.20
2019-05-29T16:12:29.451Z,4.60
2019-05-29T16:13:25.587Z,5.30
2019-05-29T16:14:25.619Z,4.90
2019-05-29T16:15:25.665Z,5.60
2019-05-29T16:16:25.709Z,5.20
2019-05-29T16:17:25.776Z,5.30
2019-05-29T16:18:29.161Z,5.10
2019-05-29T16:19:25.845Z,4.90
2019-05-29T16:20:25.892Z,4.70
2019-05-29T16:21:25.934Z,5.10
2019-05-29T16:22:25.981Z,5.40
2019-05-29T16:23:34.748Z,5.00
2019-05-29T16:24:26.068Z,5.00
2019-05-29T16:25:39.727Z,5.20
2019-05-29T16:26:26.158Z,5.20
2019-05-29T16:27:30.637Z,5.90
2019-05-29T16:28:26.245Z,5.20
2019-05-29T16:29:26.290Z,4.80
2019-05-29T16:30:26.335Z,4.30
2019-05-29T16:31:26.381Z,4.10
2019-05-29T16:32:26.423Z,3.90
2019-05-29T16:33:26.468Z,3.90
2019-05-29T16:34:26.514Z,3.50
2019-05-29T16:35:26.559Z,2.70
2019-05-29T16:36:26.601Z,2.60
2019-05-29T16:37:26.648Z,2.10
2019-05-29T16:38:26.690Z,1.40
2019-05-29T16:39:26.736Z,1.60
2019-05-29T16:40:26.783Z,1.50
2019-05-29T16:41:26.822Z,1.60
2019-05-29T16:42:26.869Z,1.90
2019-05-29T16:43:26.911Z,2.00
2019-05-29T16:44:29.482Z,2.00
2019-05-29T16:45:27.200Z,1.70
2019-05-29T16:46:27.044Z,1.60
2019-05-29T16:47:27.091Z,1.60
2019-05-29T16:48:27.130Z,1.50
2019-05-29T16:49:27.176Z,1.70
2019-05-29T16:50:27.219Z,1.60
2019-05-29T16:51:27.272Z,1.50
2019-05-29T16:52:27.306Z,1.50
2019-05-29T16:53:27.350Z,1.80
2019-05-29T16:54:27.394Z,1.70
2019-05-29T16:55:27.442Z,1.50
2019-05-29T16:56:27.507Z,1.40
2019-05-29T16:57:27.524Z,1.50
2019-05-29T16:58:27.795Z,1.50
2019-05-29T17:00:28.867Z,1.60
2019-05-29T17:02:25.497Z,1.40
2019-05-29T17:03:25.517Z,1.30
2019-05-29T17:05:25.601Z,2.40
2019-05-29T17:06:25.647Z,2.20
2019-05-29T17:07:25.713Z,1.70
2019-05-29T17:08:25.728Z,2.00
2019-05-29T17:09:25.778Z,1.60
2019-05-29T17:10:25.813Z,1.80
2019-05-29T17:12:25.897Z,1.80
2019-05-29T17:13:25.972Z,1.40
2019-05-29T17:14:25.983Z,1.50
2019-05-29T17:16:26.101Z,1.70
2019-05-29T17:17:26.134Z,1.80
2019-05-29T17:19:26.296Z,1.50
2019-05-29T17:21:28.871Z,1.30
2019-05-29T17:22:28.884Z,1.20
2019-05-29T17:23:30.569Z,1.20
2019-05-29T17:25:41.626Z,1.60
2019-05-29T17:26:41.647Z,2.70
2019-05-29T17:27:41.685Z,2.30
2019-05-29T17:28:41.722Z,2.00
2019-05-29T17:29:41.788Z,1.80
2019-05-29T17:30:44.935Z,1.90
2019-05-29T17:32:41.893Z,2.10
2019-05-29T17:33:42.154Z,1.80
2019-05-29T17:34:41.963Z,2.00
2019-05-29T17:36:42.042Z,1.60
2019-05-29T17:37:42.082Z,1.50
2019-05-29T17:38:42.341Z,1.90
2019-05-29T17:39:42.160Z,1.70
2019-05-29T17:40:42.198Z,1.80
2019-05-29T17:41:42.238Z,1.50
2019-05-29T17:42:42.277Z,1.40
2019-05-29T17:43:42.314Z,1.40
2019-05-29T17:44:42.355Z,1.30
2019-05-29T17:45:42.394Z,1.10
2019-05-29T17:46:42.463Z,1.70
2019-05-29T17:47:42.469Z,1.60
2019-05-29T17:48:42.742Z,1.80
2019-05-29T17:50:42.582Z,2.40
2019-05-29T17:51:42.622Z,1.50
2019-05-29T17:52:42.665Z,1.80
2019-05-29T17:53:42.695Z,1.40
2019-05-29T17:54:42.733Z,1.90
2019-05-29T17:55:42.771Z,2.00
2019-05-29T17:56:42.807Z,1.40